sensor_id;sensor_type;location;lat;lon;timestamp;P1;durP1;ratioP1;P2;durP2;ratioP2
31087;SDS011;17745;55.914;37.554;2023-06-14T00:01:38;16.42;;;5.90;;
31087;SDS011;17745;55.914;37.554;2023-06-14T00:04:07;11.57;;;5.30;;
31087;SDS011;17745;55.914;37.554;2023-06-14T00:06:35;11.63;;;5.85;;
31087;SDS011;17745;55.914;37.554;2023-06-14T00:09:05;9.77;;;5.78;;
31087;SDS011;17745;55.914;37.554;2023-06-14T00:11:50;17.33;;;5.87;;
31087;SDS011;17745;55.914;37.554;2023-06-14T00:14:23;14.15;;;5.22;;
31087;SDS011;17745;55.914;37.554;2023-06-14T00:16:52;10.32;;;5.80;;
31087;SDS011;17745;55.914;37.554;2023-06-14T00:19:25;12.70;;;6.07;;
31087;SDS011;17745;55.914;37.554;2023-06-14T00:21:54;9.18;;;5.68;;
31087;SDS011;17745;55.914;37.554;2023-06-14T00:24:22;9.00;;;5.60;;
31087;SDS011;17745;55.914;37.554;2023-06-14T00:26:52;11.10;;;5.90;;
31087;SDS011;17745;55.914;37.554;2023-06-14T00:29:22;11.40;;;6.00;;
31087;SDS011;17745;55.914;37.554;2023-06-14T00:31:49;11.82;;;5.57;;
31087;SDS011;17745;55.914;37.554;2023-06-14T00:34:18;12.80;;;5.72;;
31087;SDS011;17745;55.914;37.554;2023-06-14T00:36:46;11.30;;;5.60;;
31087;SDS011;17745;55.914;37.554;2023-06-14T00:39:14;20.33;;;6.18;;
31087;SDS011;17745;55.914;37.554;2023-06-14T00:41:42;14.77;;;6.07;;
31087;SDS011;17745;55.914;37.554;2023-06-14T00:44:13;11.52;;;6.18;;
31087;SDS011;17745;55.914;37.554;2023-06-14T00:46:44;13.35;;;5.80;;
31087;SDS011;17745;55.914;37.554;2023-06-14T00:49:15;9.25;;;5.43;;
31087;SDS011;17745;55.914;37.554;2023-06-14T00:51:48;17.00;;;6.35;;
31087;SDS011;17745;55.914;37.554;2023-06-14T00:54:18;14.50;;;5.78;;
31087;SDS011;17745;55.914;37.554;2023-06-14T00:56:46;12.57;;;6.72;;
31087;SDS011;17745;55.914;37.554;2023-06-14T00:59:16;13.10;;;6.35;;
31087;SDS011;17745;55.914;37.554;2023-06-14T01:01:45;12.50;;;6.32;;
31087;SDS011;17745;55.914;37.554;2023-06-14T01:04:14;12.98;;;6.80;;
31087;SDS011;17745;55.914;37.554;2023-06-14T01:06:43;10.93;;;6.00;;
31087;SDS011;17745;55.914;37.554;2023-06-14T01:09:22;17.37;;;6.75;;
31087;SDS011;17745;55.914;37.554;2023-06-14T01:14:30;15.18;;;6.60;;
31087;SDS011;17745;55.914;37.554;2023-06-14T01:17:01;12.43;;;6.75;;
31087;SDS011;17745;55.914;37.554;2023-06-14T01:19:32;11.90;;;6.85;;
31087;SDS011;17745;55.914;37.554;2023-06-14T01:22:01;13.90;;;6.97;;
31087;SDS011;17745;55.914;37.554;2023-06-14T01:24:33;15.57;;;6.72;;
31087;SDS011;17745;55.914;37.554;2023-06-14T01:27:02;12.70;;;6.40;;
31087;SDS011;17745;55.914;37.554;2023-06-14T01:29:33;12.10;;;6.40;;
31087;SDS011;17745;55.914;37.554;2023-06-14T01:32:02;11.73;;;6.47;;
31087;SDS011;17745;55.914;37.554;2023-06-14T01:34:37;11.75;;;6.43;;
31087;SDS011;17745;55.914;37.554;2023-06-14T01:37:05;13.43;;;5.87;;
31087;SDS011;17745;55.914;37.554;2023-06-14T01:39:36;13.90;;;5.95;;
31087;SDS011;17745;55.914;37.554;2023-06-14T01:42:06;18.85;;;6.53;;
31087;SDS011;17745;55.914;37.554;2023-06-14T01:44:34;13.55;;;5.75;;
31087;SDS011;17745;55.914;37.554;2023-06-14T01:47:03;8.63;;;5.32;;
31087;SDS011;17745;55.914;37.554;2023-06-14T01:49:34;9.93;;;5.43;;
31087;SDS011;17745;55.914;37.554;2023-06-14T01:52:04;11.93;;;5.57;;
31087;SDS011;17745;55.914;37.554;2023-06-14T01:54:37;12.43;;;6.45;;
31087;SDS011;17745;55.914;37.554;2023-06-14T01:57:08;15.57;;;7.12;;
31087;SDS011;17745;55.914;37.554;2023-06-14T01:59:36;14.52;;;6.20;;
31087;SDS011;17745;55.914;37.554;2023-06-14T02:02:04;14.95;;;6.82;;
31087;SDS011;17745;55.914;37.554;2023-06-14T02:04:33;13.02;;;6.95;;
31087;SDS011;17745;55.914;37.554;2023-06-14T02:07:02;11.65;;;6.07;;
31087;SDS011;17745;55.914;37.554;2023-06-14T02:09:30;12.57;;;7.18;;
31087;SDS011;17745;55.914;37.554;2023-06-14T02:12:00;12.00;;;6.43;;
31087;SDS011;17745;55.914;37.554;2023-06-14T02:14:29;14.38;;;5.70;;
31087;SDS011;17745;55.914;37.554;2023-06-14T02:16:57;12.05;;;6.47;;
31087;SDS011;17745;55.914;37.554;2023-06-14T02:19:30;12.13;;;6.25;;
31087;SDS011;17745;55.914;37.554;2023-06-14T02:22:05;11.85;;;6.50;;
31087;SDS011;17745;55.914;37.554;2023-06-14T02:24:34;12.30;;;6.18;;
31087;SDS011;17745;55.914;37.554;2023-06-14T02:27:09;14.02;;;6.40;;
31087;SDS011;17745;55.914;37.554;2023-06-14T02:29:37;11.02;;;5.95;;
31087;SDS011;17745;55.914;37.554;2023-06-14T02:32:06;13.82;;;7.30;;
31087;SDS011;17745;55.914;37.554;2023-06-14T02:34:36;12.27;;;5.75;;
31087;SDS011;17745;55.914;37.554;2023-06-14T02:37:07;14.52;;;6.68;;
31087;SDS011;17745;55.914;37.554;2023-06-14T02:39:35;11.32;;;5.65;;
31087;SDS011;17745;55.914;37.554;2023-06-14T02:42:03;12.20;;;6.00;;
31087;SDS011;17745;55.914;37.554;2023-06-14T02:44:34;10.65;;;5.68;;
31087;SDS011;17745;55.914;37.554;2023-06-14T02:47:02;11.30;;;6.37;;
31087;SDS011;17745;55.914;37.554;2023-06-14T02:49:31;10.25;;;6.12;;
31087;SDS011;17745;55.914;37.554;2023-06-14T02:51:59;13.62;;;5.70;;
31087;SDS011;17745;55.914;37.554;2023-06-14T02:54:28;12.95;;;5.85;;
31087;SDS011;17745;55.914;37.554;2023-06-14T02:56:57;9.63;;;5.50;;
31087;SDS011;17745;55.914;37.554;2023-06-14T02:59:26;12.90;;;5.60;;
31087;SDS011;17745;55.914;37.554;2023-06-14T03:01:57;10.38;;;5.45;;
31087;SDS011;17745;55.914;37.554;2023-06-14T03:04:25;10.80;;;5.80;;
31087;SDS011;17745;55.914;37.554;2023-06-14T03:07:02;12.82;;;5.68;;
31087;SDS011;17745;55.914;37.554;2023-06-14T03:09:35;8.60;;;5.57;;
31087;SDS011;17745;55.914;37.554;2023-06-14T03:12:08;10.50;;;5.95;;
31087;SDS011;17745;55.914;37.554;2023-06-14T03:14:38;13.23;;;5.72;;
31087;SDS011;17745;55.914;37.554;2023-06-14T03:17:10;13.45;;;5.90;;
31087;SDS011;17745;55.914;37.554;2023-06-14T03:19:38;10.10;;;5.80;;
31087;SDS011;17745;55.914;37.554;2023-06-14T03:22:09;9.90;;;5.28;;
31087;SDS011;17745;55.914;37.554;2023-06-14T03:24:38;9.82;;;5.80;;
31087;SDS011;17745;55.914;37.554;2023-06-14T03:27:13;12.27;;;5.62;;
31087;SDS011;17745;55.914;37.554;2023-06-14T03:29:42;10.80;;;6.20;;
31087;SDS011;17745;55.914;37.554;2023-06-14T03:32:18;9.93;;;5.77;;
31087;SDS011;17745;55.914;37.554;2023-06-14T03:34:46;10.00;;;5.20;;
31087;SDS011;17745;55.914;37.554;2023-06-14T03:37:15;12.95;;;5.37;;
31087;SDS011;17745;55.914;37.554;2023-06-14T03:39:44;10.40;;;5.53;;
31087;SDS011;17745;55.914;37.554;2023-06-14T03:42:13;12.43;;;5.70;;
31087;SDS011;17745;55.914;37.554;2023-06-14T03:44:42;14.25;;;5.93;;
31087;SDS011;17745;55.914;37.554;2023-06-14T03:47:12;13.88;;;5.32;;
31087;SDS011;17745;55.914;37.554;2023-06-14T03:49:43;10.90;;;5.35;;
31087;SDS011;17745;55.914;37.554;2023-06-14T03:52:13;25.90;;;5.80;;
31087;SDS011;17745;55.914;37.554;2023-06-14T03:54:42;13.98;;;6.72;;
31087;SDS011;17745;55.914;37.554;2023-06-14T03:57:13;8.63;;;5.60;;
31087;SDS011;17745;55.914;37.554;2023-06-14T03:59:41;10.55;;;5.60;;
31087;SDS011;17745;55.914;37.554;2023-06-14T04:02:11;13.68;;;5.37;;
31087;SDS011;17745;55.914;37.554;2023-06-14T04:04:44;15.00;;;5.90;;
31087;SDS011;17745;55.914;37.554;2023-06-14T04:07:14;8.90;;;5.12;;
31087;SDS011;17745;55.914;37.554;2023-06-14T04:09:46;15.77;;;5.40;;
31087;SDS011;17745;55.914;37.554;2023-06-14T04:12:14;9.00;;;4.65;;
31087;SDS011;17745;55.914;37.554;2023-06-14T04:14:42;9.60;;;5.18;;
31087;SDS011;17745;55.914;37.554;2023-06-14T04:17:11;21.37;;;6.62;;
31087;SDS011;17745;55.914;37.554;2023-06-14T04:19:40;11.20;;;5.90;;
31087;SDS011;17745;55.914;37.554;2023-06-14T04:22:11;15.05;;;5.15;;
31087;SDS011;17745;55.914;37.554;2023-06-14T04:24:39;12.40;;;5.30;;
31087;SDS011;17745;55.914;37.554;2023-06-14T04:27:08;9.88;;;4.90;;
31087;SDS011;17745;55.914;37.554;2023-06-14T04:29:37;10.05;;;4.90;;
31087;SDS011;17745;55.914;37.554;2023-06-14T04:32:11;10.45;;;5.68;;
31087;SDS011;17745;55.914;37.554;2023-06-14T04:34:39;10.18;;;4.45;;
31087;SDS011;17745;55.914;37.554;2023-06-14T04:37:10;12.68;;;5.10;;
31087;SDS011;17745;55.914;37.554;2023-06-14T04:39:39;11.05;;;4.50;;
31087;SDS011;17745;55.914;37.554;2023-06-14T04:42:08;9.85;;;4.43;;
31087;SDS011;17745;55.914;37.554;2023-06-14T04:44:40;6.40;;;3.85;;
31087;SDS011;17745;55.914;37.554;2023-06-14T04:47:09;7.80;;;3.65;;
31087;SDS011;17745;55.914;37.554;2023-06-14T04:49:38;10.77;;;4.10;;
31087;SDS011;17745;55.914;37.554;2023-06-14T04:52:10;9.40;;;4.07;;
31087;SDS011;17745;55.914;37.554;2023-06-14T04:54:39;14.43;;;3.95;;
31087;SDS011;17745;55.914;37.554;2023-06-14T04:57:09;13.65;;;4.70;;
31087;SDS011;17745;55.914;37.554;2023-06-14T04:59:40;11.52;;;4.10;;
31087;SDS011;17745;55.914;37.554;2023-06-14T05:02:10;6.15;;;3.85;;
31087;SDS011;17745;55.914;37.554;2023-06-14T05:04:39;8.60;;;3.80;;
31087;SDS011;17745;55.914;37.554;2023-06-14T05:07:11;8.20;;;3.85;;
31087;SDS011;17745;55.914;37.554;2023-06-14T05:09:43;6.87;;;3.70;;
31087;SDS011;17745;55.914;37.554;2023-06-14T05:12:12;10.90;;;4.20;;
31087;SDS011;17745;55.914;37.554;2023-06-14T05:14:58;10.32;;;3.78;;
31087;SDS011;17745;55.914;37.554;2023-06-14T05:20:21;9.80;;;3.35;;
31087;SDS011;17745;55.914;37.554;2023-06-14T05:22:56;8.25;;;3.42;;
31087;SDS011;17745;55.914;37.554;2023-06-14T05:25:27;7.03;;;3.00;;
31087;SDS011;17745;55.914;37.554;2023-06-14T05:28:20;7.72;;;3.85;;
31087;SDS011;17745;55.914;37.554;2023-06-14T05:30:49;7.50;;;3.55;;
31087;SDS011;17745;55.914;37.554;2023-06-14T05:33:20;8.98;;;3.72;;
31087;SDS011;17745;55.914;37.554;2023-06-14T05:35:51;11.70;;;3.92;;
31087;SDS011;17745;55.914;37.554;2023-06-14T05:38:24;7.85;;;3.47;;
31087;SDS011;17745;55.914;37.554;2023-06-14T05:40:55;11.25;;;3.70;;
31087;SDS011;17745;55.914;37.554;2023-06-14T05:43:23;9.35;;;3.35;;
31087;SDS011;17745;55.914;37.554;2023-06-14T05:45:52;8.55;;;3.85;;
31087;SDS011;17745;55.914;37.554;2023-06-14T05:48:37;7.10;;;3.87;;
31087;SDS011;17745;55.914;37.554;2023-06-14T05:51:06;9.13;;;3.30;;
31087;SDS011;17745;55.914;37.554;2023-06-14T05:53:46;8.13;;;3.75;;
31087;SDS011;17745;55.914;37.554;2023-06-14T05:56:16;9.13;;;3.92;;
31087;SDS011;17745;55.914;37.554;2023-06-14T05:58:46;10.18;;;3.92;;
31087;SDS011;17745;55.914;37.554;2023-06-14T06:01:19;8.63;;;3.70;;
31087;SDS011;17745;55.914;37.554;2023-06-14T06:03:52;14.13;;;3.90;;
31087;SDS011;17745;55.914;37.554;2023-06-14T06:06:21;8.40;;;3.80;;
31087;SDS011;17745;55.914;37.554;2023-06-14T06:09:01;9.27;;;3.37;;
31087;SDS011;17745;55.914;37.554;2023-06-14T06:11:32;6.72;;;3.47;;
31087;SDS011;17745;55.914;37.554;2023-06-14T06:14:08;10.35;;;4.32;;
31087;SDS011;17745;55.914;37.554;2023-06-14T06:16:49;10.05;;;3.78;;
31087;SDS011;17745;55.914;37.554;2023-06-14T06:19:37;9.77;;;3.58;;
31087;SDS011;17745;55.914;37.554;2023-06-14T06:22:06;15.32;;;3.90;;
31087;SDS011;17745;55.914;37.554;2023-06-14T06:24:51;7.03;;;3.53;;
31087;SDS011;17745;55.914;37.554;2023-06-14T06:27:22;8.48;;;4.00;;
31087;SDS011;17745;55.914;37.554;2023-06-14T06:29:53;7.68;;;3.33;;
31087;SDS011;17745;55.914;37.554;2023-06-14T06:32:23;9.63;;;3.50;;
31087;SDS011;17745;55.914;37.554;2023-06-14T06:35:15;9.50;;;3.80;;
31087;SDS011;17745;55.914;37.554;2023-06-14T06:37:52;6.93;;;2.97;;
31087;SDS011;17745;55.914;37.554;2023-06-14T06:40:50;9.63;;;3.08;;
31087;SDS011;17745;55.914;37.554;2023-06-14T06:43:30;6.85;;;2.92;;
31087;SDS011;17745;55.914;37.554;2023-06-14T06:46:10;12.73;;;4.05;;
31087;SDS011;17745;55.914;37.554;2023-06-14T06:48:46;8.70;;;3.35;;
31087;SDS011;17745;55.914;37.554;2023-06-14T06:51:17;8.00;;;3.20;;
31087;SDS011;17745;55.914;37.554;2023-06-14T06:53:52;10.82;;;3.67;;
31087;SDS011;17745;55.914;37.554;2023-06-14T06:56:28;7.68;;;3.47;;
31087;SDS011;17745;55.914;37.554;2023-06-14T06:59:10;14.65;;;3.53;;
31087;SDS011;17745;55.914;37.554;2023-06-14T07:02:42;8.25;;;3.08;;
31087;SDS011;17745;55.914;37.554;2023-06-14T07:05:17;13.07;;;3.70;;
31087;SDS011;17745;55.914;37.554;2023-06-14T07:07:52;9.65;;;3.55;;
31087;SDS011;17745;55.914;37.554;2023-06-14T07:10:38;8.55;;;3.50;;
31087;SDS011;17745;55.914;37.554;2023-06-14T07:13:33;10.18;;;3.10;;
31087;SDS011;17745;55.914;37.554;2023-06-14T07:16:19;6.07;;;3.12;;
31087;SDS011;17745;55.914;37.554;2023-06-14T07:19:06;8.30;;;2.83;;
31087;SDS011;17745;55.914;37.554;2023-06-14T07:21:51;21.42;;;3.25;;
31087;SDS011;17745;55.914;37.554;2023-06-14T07:27:42;8.27;;;3.00;;
31087;SDS011;17745;55.914;37.554;2023-06-14T07:30:40;7.80;;;3.03;;
31087;SDS011;17745;55.914;37.554;2023-06-14T07:33:33;9.30;;;2.90;;
31087;SDS011;17745;55.914;37.554;2023-06-14T07:36:56;7.95;;;3.72;;
31087;SDS011;17745;55.914;37.554;2023-06-14T07:39:43;8.77;;;3.12;;
31087;SDS011;17745;55.914;37.554;2023-06-14T07:43:24;6.87;;;3.15;;
31087;SDS011;17745;55.914;37.554;2023-06-14T07:57:11;11.48;;;3.28;;
31087;SDS011;17745;55.914;37.554;2023-06-14T08:00:17;11.55;;;3.03;;
31087;SDS011;17745;55.914;37.554;2023-06-14T08:02:49;6.30;;;2.67;;
31087;SDS011;17745;55.914;37.554;2023-06-14T08:05:29;11.30;;;3.30;;
31087;SDS011;17745;55.914;37.554;2023-06-14T08:08:41;6.47;;;2.75;;
31087;SDS011;17745;55.914;37.554;2023-06-14T08:11:35;8.27;;;3.22;;
31087;SDS011;17745;55.914;37.554;2023-06-14T08:14:16;7.40;;;2.78;;
31087;SDS011;17745;55.914;37.554;2023-06-14T08:17:12;7.95;;;3.00;;
31087;SDS011;17745;55.914;37.554;2023-06-14T08:20:04;7.12;;;3.03;;
31087;SDS011;17745;55.914;37.554;2023-06-14T08:25:40;8.73;;;3.10;;
31087;SDS011;17745;55.914;37.554;2023-06-14T08:28:12;7.55;;;3.15;;
31087;SDS011;17745;55.914;37.554;2023-06-14T08:30:51;10.93;;;3.22;;
31087;SDS011;17745;55.914;37.554;2023-06-14T08:39:37;5.55;;;3.28;;
31087;SDS011;17745;55.914;37.554;2023-06-14T08:42:53;6.75;;;2.67;;
31087;SDS011;17745;55.914;37.554;2023-06-14T08:53:01;10.85;;;3.10;;
31087;SDS011;17745;55.914;37.554;2023-06-14T18:36:34;12.07;;;4.40;;
31087;SDS011;17745;55.914;37.554;2023-06-14T18:41:59;11.15;;;3.72;;
31087;SDS011;17745;55.914;37.554;2023-06-14T18:44:37;11.90;;;4.18;;
31087;SDS011;17745;55.914;37.554;2023-06-14T18:47:20;9.15;;;4.40;;
31087;SDS011;17745;55.914;37.554;2023-06-14T18:50:08;9.90;;;4.40;;
31087;SDS011;17745;55.914;37.554;2023-06-14T18:53:17;14.02;;;4.70;;
31087;SDS011;17745;55.914;37.554;2023-06-14T18:55:46;11.75;;;4.47;;
31087;SDS011;17745;55.914;37.554;2023-06-14T18:58:25;11.30;;;4.05;;
31087;SDS011;17745;55.914;37.554;2023-06-14T19:00:58;11.60;;;3.90;;
31087;SDS011;17745;55.914;37.554;2023-06-14T19:03:31;15.85;;;4.68;;
31087;SDS011;17745;55.914;37.554;2023-06-14T19:06:08;15.13;;;4.85;;
31087;SDS011;17745;55.914;37.554;2023-06-14T19:12:36;7.95;;;4.35;;
31087;SDS011;17745;55.914;37.554;2023-06-14T19:15:10;12.98;;;4.85;;
31087;SDS011;17745;55.914;37.554;2023-06-14T19:20:50;16.70;;;4.10;;
31087;SDS011;17745;55.914;37.554;2023-06-14T19:23:32;13.30;;;5.12;;
31087;SDS011;17745;55.914;37.554;2023-06-14T19:26:25;13.98;;;5.12;;
31087;SDS011;17745;55.914;37.554;2023-06-14T19:29:12;9.93;;;4.75;;
31087;SDS011;17745;55.914;37.554;2023-06-14T19:32:11;9.93;;;4.47;;
31087;SDS011;17745;55.914;37.554;2023-06-14T19:35:28;14.80;;;4.93;;
31087;SDS011;17745;55.914;37.554;2023-06-14T19:38:06;10.15;;;4.87;;
31087;SDS011;17745;55.914;37.554;2023-06-14T19:41:42;8.98;;;4.20;;
31087;SDS011;17745;55.914;37.554;2023-06-14T19:45:20;14.07;;;5.30;;
31087;SDS011;17745;55.914;37.554;2023-06-14T19:48:27;11.73;;;4.85;;
31087;SDS011;17745;55.914;37.554;2023-06-14T19:52:06;11.52;;;4.85;;
31087;SDS011;17745;55.914;37.554;2023-06-14T19:55:53;13.20;;;4.90;;
31087;SDS011;17745;55.914;37.554;2023-06-14T19:59:38;13.20;;;4.68;;
31087;SDS011;17745;55.914;37.554;2023-06-14T20:43:24;10.93;;;5.60;;
31087;SDS011;17745;55.914;37.554;2023-06-14T20:46:31;18.10;;;4.97;;
31087;SDS011;17745;55.914;37.554;2023-06-14T20:49:44;12.48;;;5.45;;
31087;SDS011;17745;55.914;37.554;2023-06-14T20:52:24;12.40;;;5.10;;
31087;SDS011;17745;55.914;37.554;2023-06-14T20:55:17;11.85;;;5.05;;
31087;SDS011;17745;55.914;37.554;2023-06-14T20:58:16;15.48;;;5.50;;
31087;SDS011;17745;55.914;37.554;2023-06-14T21:09:08;13.10;;;4.85;;
31087;SDS011;17745;55.914;37.554;2023-06-14T21:12:13;10.90;;;5.30;;
31087;SDS011;17745;55.914;37.554;2023-06-14T21:15:41;9.77;;;5.30;;
31087;SDS011;17745;55.914;37.554;2023-06-14T21:18:40;10.70;;;4.78;;
31087;SDS011;17745;55.914;37.554;2023-06-14T21:21:22;10.50;;;4.95;;
31087;SDS011;17745;55.914;37.554;2023-06-14T21:23:53;9.90;;;4.47;;
31087;SDS011;17745;55.914;37.554;2023-06-14T21:26:30;9.93;;;4.87;;
31087;SDS011;17745;55.914;37.554;2023-06-14T21:29:12;8.80;;;4.50;;
31087;SDS011;17745;55.914;37.554;2023-06-14T21:32:01;10.15;;;5.35;;
31087;SDS011;17745;55.914;37.554;2023-06-14T21:34:30;8.45;;;4.60;;
31087;SDS011;17745;55.914;37.554;2023-06-14T21:37:12;13.40;;;4.82;;
31087;SDS011;17745;55.914;37.554;2023-06-14T21:40:13;12.75;;;5.62;;
31087;SDS011;17745;55.914;37.554;2023-06-14T21:46:39;13.38;;;5.32;;
31087;SDS011;17745;55.914;37.554;2023-06-14T21:49:11;9.20;;;4.87;;
31087;SDS011;17745;55.914;37.554;2023-06-14T21:51:59;9.80;;;5.05;;
31087;SDS011;17745;55.914;37.554;2023-06-14T21:54:35;11.98;;;4.95;;
31087;SDS011;17745;55.914;37.554;2023-06-14T21:57:14;10.07;;;5.05;;
31087;SDS011;17745;55.914;37.554;2023-06-14T22:00:20;10.45;;;4.60;;
31087;SDS011;17745;55.914;37.554;2023-06-14T22:03:29;12.00;;;4.45;;
31087;SDS011;17745;55.914;37.554;2023-06-14T22:06:42;11.12;;;5.25;;
31087;SDS011;17745;55.914;37.554;2023-06-14T22:09:44;10.43;;;4.70;;
31087;SDS011;17745;55.914;37.554;2023-06-14T22:12:42;10.70;;;4.28;;
31087;SDS011;17745;55.914;37.554;2023-06-14T22:18:40;10.20;;;5.10;;
31087;SDS011;17745;55.914;37.554;2023-06-14T22:21:13;11.05;;;5.40;;
31087;SDS011;17745;55.914;37.554;2023-06-14T22:23:58;10.88;;;4.62;;
31087;SDS011;17745;55.914;37.554;2023-06-14T22:29:17;10.90;;;4.80;;
31087;SDS011;17745;55.914;37.554;2023-06-14T22:31:56;8.93;;;4.55;;
31087;SDS011;17745;55.914;37.554;2023-06-14T22:34:28;18.60;;;5.35;;
31087;SDS011;17745;55.914;37.554;2023-06-14T22:37:05;9.98;;;4.78;;
31087;SDS011;17745;55.914;37.554;2023-06-14T22:39:59;12.48;;;5.12;;
31087;SDS011;17745;55.914;37.554;2023-06-14T22:42:53;10.75;;;4.37;;
31087;SDS011;17745;55.914;37.554;2023-06-14T22:45:29;9.88;;;4.57;;
31087;SDS011;17745;55.914;37.554;2023-06-14T22:51:44;11.25;;;4.72;;
31087;SDS011;17745;55.914;37.554;2023-06-14T22:54:45;10.38;;;4.60;;
31087;SDS011;17745;55.914;37.554;2023-06-14T22:57:35;8.23;;;4.65;;
31087;SDS011;17745;55.914;37.554;2023-06-14T23:00:30;8.43;;;5.32;;
31087;SDS011;17745;55.914;37.554;2023-06-14T23:03:19;11.32;;;4.25;;
31087;SDS011;17745;55.914;37.554;2023-06-14T23:05:56;10.05;;;4.20;;
31087;SDS011;17745;55.914;37.554;2023-06-14T23:08:27;11.98;;;4.95;;
31087;SDS011;17745;55.914;37.554;2023-06-14T23:10:59;16.23;;;4.97;;
31087;SDS011;17745;55.914;37.554;2023-06-14T23:13:33;10.27;;;5.15;;
31087;SDS011;17745;55.914;37.554;2023-06-14T23:16:04;8.93;;;4.68;;
31087;SDS011;17745;55.914;37.554;2023-06-14T23:18:35;13.73;;;4.87;;
31087;SDS011;17745;55.914;37.554;2023-06-14T23:21:06;9.80;;;5.05;;
31087;SDS011;17745;55.914;37.554;2023-06-14T23:23:39;14.73;;;4.90;;
31087;SDS011;17745;55.914;37.554;2023-06-14T23:26:12;8.10;;;4.20;;
31087;SDS011;17745;55.914;37.554;2023-06-14T23:28:41;11.38;;;4.90;;
31087;SDS011;17745;55.914;37.554;2023-06-14T23:31:26;13.40;;;4.50;;
31087;SDS011;17745;55.914;37.554;2023-06-14T23:33:56;10.30;;;4.70;;
31087;SDS011;17745;55.914;37.554;2023-06-14T23:36:35;8.10;;;4.87;;
31087;SDS011;17745;55.914;37.554;2023-06-14T23:39:08;15.15;;;5.03;;
31087;SDS011;17745;55.914;37.554;2023-06-14T23:41:37;11.00;;;4.90;;
31087;SDS011;17745;55.914;37.554;2023-06-14T23:44:06;10.82;;;4.57;;
31087;SDS011;17745;55.914;37.554;2023-06-14T23:46:34;12.98;;;5.10;;
31087;SDS011;17745;55.914;37.554;2023-06-14T23:49:03;10.13;;;5.07;;
31087;SDS011;17745;55.914;37.554;2023-06-14T23:51:33;11.52;;;4.65;;
31087;SDS011;17745;55.914;37.554;2023-06-14T23:54:04;11.95;;;5.35;;
31087;SDS011;17745;55.914;37.554;2023-06-14T23:56:32;9.48;;;4.80;;
31087;SDS011;17745;55.914;37.554;2023-06-14T23:59:03;10.90;;;4.78;;
